sensor_id;sensor_type;location;lat;lon;timestamp;temperature;humidity
52963;DHT22;38827;53.024;6.596;2024-03-02T00:01:58;7.80;66.50
52963;DHT22;38827;53.024;6.596;2024-03-02T00:04:24;7.80;66.60
52963;DHT22;38827;53.024;6.596;2024-03-02T00:06:53;7.80;66.70
52963;DHT22;38827;53.024;6.596;2024-03-02T00:09:20;7.80;66.80
52963;DHT22;38827;53.024;6.596;2024-03-02T00:11:46;7.80;66.90
52963;DHT22;38827;53.024;6.596;2024-03-02T00:14:13;7.80;67.00
52963;DHT22;38827;53.024;6.596;2024-03-02T00:19:10;7.80;67.10
52963;DHT22;38827;53.024;6.596;2024-03-02T00:21:38;7.80;67.00
52963;DHT22;38827;53.024;6.596;2024-03-02T00:24:33;7.80;67.10
52963;DHT22;38827;53.024;6.596;2024-03-02T00:27:03;7.80;67.10
52963;DHT22;38827;53.024;6.596;2024-03-02T00:29:32;7.80;67.20
52963;DHT22;38827;53.024;6.596;2024-03-02T00:32:18;7.80;67.20
52963;DHT22;38827;53.024;6.596;2024-03-02T00:34:59;7.80;67.20
52963;DHT22;38827;53.024;6.596;2024-03-02T00:37:43;7.80;67.30
52963;DHT22;38827;53.024;6.596;2024-03-02T00:40:45;7.80;67.40
52963;DHT22;38827;53.024;6.596;2024-03-02T00:46:33;7.90;67.20
52963;DHT22;38827;53.024;6.596;2024-03-02T00:49:35;7.90;67.30
52963;DHT22;38827;53.024;6.596;2024-03-02T00:52:03;7.90;67.20
52963;DHT22;38827;53.024;6.596;2024-03-02T00:54:30;7.90;67.30
52963;DHT22;38827;53.024;6.596;2024-03-02T00:57:02;7.90;67.20
52963;DHT22;38827;53.024;6.596;2024-03-02T00:59:28;8.00;67.20
52963;DHT22;38827;53.024;6.596;2024-03-02T01:01:58;8.00;67.30
52963;DHT22;38827;53.024;6.596;2024-03-02T01:04:36;8.00;67.30
52963;DHT22;38827;53.024;6.596;2024-03-02T01:07:10;8.00;67.10
52963;DHT22;38827;53.024;6.596;2024-03-02T01:09:51;8.00;67.20
52963;DHT22;38827;53.024;6.596;2024-03-02T01:12:29;8.00;67.30
52963;DHT22;38827;53.024;6.596;2024-03-02T01:15:03;8.00;67.20
52963;DHT22;38827;53.024;6.596;2024-03-02T01:17:43;8.00;67.20
52963;DHT22;38827;53.024;6.596;2024-03-02T01:20:15;8.00;67.20
52963;DHT22;38827;53.024;6.596;2024-03-02T01:22:52;8.00;67.20
52963;DHT22;38827;53.024;6.596;2024-03-02T01:25:18;8.00;67.20
52963;DHT22;38827;53.024;6.596;2024-03-02T01:28:15;8.00;67.20
52963;DHT22;38827;53.024;6.596;2024-03-02T01:30:41;8.00;67.30
52963;DHT22;38827;53.024;6.596;2024-03-02T01:33:17;8.00;67.30
52963;DHT22;38827;53.024;6.596;2024-03-02T01:35:58;8.00;67.30
52963;DHT22;38827;53.024;6.596;2024-03-02T01:38:42;8.00;67.40
52963;DHT22;38827;53.024;6.596;2024-03-02T01:41:13;8.00;67.40
52963;DHT22;38827;53.024;6.596;2024-03-02T01:43:42;8.00;67.30
52963;DHT22;38827;53.024;6.596;2024-03-02T01:46:20;8.00;67.30
52963;DHT22;38827;53.024;6.596;2024-03-02T01:48:46;8.00;67.40
52963;DHT22;38827;53.024;6.596;2024-03-02T01:51:13;8.00;67.40
52963;DHT22;38827;53.024;6.596;2024-03-02T01:53:57;8.00;67.50
52963;DHT22;38827;53.024;6.596;2024-03-02T01:56:26;8.00;67.50
52963;DHT22;38827;53.024;6.596;2024-03-02T01:58:54;8.00;67.60
52963;DHT22;38827;53.024;6.596;2024-03-02T02:01:32;8.00;67.70
52963;DHT22;38827;53.024;6.596;2024-03-02T02:03:58;8.00;67.70
52963;DHT22;38827;53.024;6.596;2024-03-02T02:06:26;7.90;67.90
52963;DHT22;38827;53.024;6.596;2024-03-02T02:08:55;7.90;68.00
52963;DHT22;38827;53.024;6.596;2024-03-02T02:11:43;7.90;68.00
52963;DHT22;38827;53.024;6.596;2024-03-02T02:14:12;7.90;68.10
52963;DHT22;38827;53.024;6.596;2024-03-02T02:16:52;7.90;68.20
52963;DHT22;38827;53.024;6.596;2024-03-02T02:19:18;7.90;68.30
52963;DHT22;38827;53.024;6.596;2024-03-02T02:21:46;7.90;68.30
52963;DHT22;38827;53.024;6.596;2024-03-02T02:24:15;7.90;68.30
52963;DHT22;38827;53.024;6.596;2024-03-02T02:26:50;7.90;68.50
52963;DHT22;38827;53.024;6.596;2024-03-02T02:29:25;7.90;68.40
52963;DHT22;38827;53.024;6.596;2024-03-02T02:31:54;7.80;68.50
52963;DHT22;38827;53.024;6.596;2024-03-02T02:34:20;7.80;68.70
52963;DHT22;38827;53.024;6.596;2024-03-02T02:37:20;7.80;68.90
52963;DHT22;38827;53.024;6.596;2024-03-02T02:39:49;7.90;68.70
52963;DHT22;38827;53.024;6.596;2024-03-02T02:42:39;7.90;68.70
52963;DHT22;38827;53.024;6.596;2024-03-02T02:45:08;7.90;68.70
52963;DHT22;38827;53.024;6.596;2024-03-02T02:47:36;7.90;68.70
52963;DHT22;38827;53.024;6.596;2024-03-02T02:50:03;7.90;68.70
52963;DHT22;38827;53.024;6.596;2024-03-02T02:52:47;8.00;68.70
52963;DHT22;38827;53.024;6.596;2024-03-02T02:55:15;8.00;68.70
52963;DHT22;38827;53.024;6.596;2024-03-02T02:57:53;8.00;68.60
52963;DHT22;38827;53.024;6.596;2024-03-02T03:00:21;8.00;68.50
52963;DHT22;38827;53.024;6.596;2024-03-02T03:03:06;8.10;68.50
52963;DHT22;38827;53.024;6.596;2024-03-02T03:05:34;8.10;68.40
52963;DHT22;38827;53.024;6.596;2024-03-02T03:08:12;8.10;68.40
52963;DHT22;38827;53.024;6.596;2024-03-02T03:10:38;8.20;68.20
52963;DHT22;38827;53.024;6.596;2024-03-02T03:13:22;8.20;68.10
52963;DHT22;38827;53.024;6.596;2024-03-02T03:15:51;8.20;68.00
52963;DHT22;38827;53.024;6.596;2024-03-02T03:18:19;8.30;68.00
52963;DHT22;38827;53.024;6.596;2024-03-02T03:20:54;8.30;67.80
52963;DHT22;38827;53.024;6.596;2024-03-02T03:23:23;8.30;67.80
52963;DHT22;38827;53.024;6.596;2024-03-02T03:26:04;8.30;67.70
52963;DHT22;38827;53.024;6.596;2024-03-02T03:28:42;8.30;67.70
52963;DHT22;38827;53.024;6.596;2024-03-02T03:31:20;8.30;67.80
52963;DHT22;38827;53.024;6.596;2024-03-02T03:33:57;8.30;67.90
52963;DHT22;38827;53.024;6.596;2024-03-02T03:36:28;8.30;67.80
52963;DHT22;38827;53.024;6.596;2024-03-02T03:38:57;8.30;68.00
52963;DHT22;38827;53.024;6.596;2024-03-02T03:41:26;8.30;68.00
52963;DHT22;38827;53.024;6.596;2024-03-02T03:44:05;8.30;68.10
52963;DHT22;38827;53.024;6.596;2024-03-02T03:46:53;8.30;67.90
52963;DHT22;38827;53.024;6.596;2024-03-02T03:49:21;8.30;68.00
52963;DHT22;38827;53.024;6.596;2024-03-02T03:51:50;8.30;68.10
52963;DHT22;38827;53.024;6.596;2024-03-02T03:54:28;8.30;68.20
52963;DHT22;38827;53.024;6.596;2024-03-02T03:56:57;8.30;68.00
52963;DHT22;38827;53.024;6.596;2024-03-02T03:59:26;8.30;68.20
52963;DHT22;38827;53.024;6.596;2024-03-02T04:01:51;8.30;68.20
52963;DHT22;38827;53.024;6.596;2024-03-02T04:04:38;8.20;68.20
52963;DHT22;38827;53.024;6.596;2024-03-02T04:07:06;8.20;68.30
52963;DHT22;38827;53.024;6.596;2024-03-02T04:09:53;8.20;68.40
52963;DHT22;38827;53.024;6.596;2024-03-02T04:12:25;8.20;68.30
52963;DHT22;38827;53.024;6.596;2024-03-02T04:14:53;8.20;68.30
52963;DHT22;38827;53.024;6.596;2024-03-02T04:17:52;8.20;68.30
52963;DHT22;38827;53.024;6.596;2024-03-02T04:20:33;8.30;68.20
52963;DHT22;38827;53.024;6.596;2024-03-02T04:23:04;8.30;68.40
52963;DHT22;38827;53.024;6.596;2024-03-02T04:26:04;8.30;68.40
52963;DHT22;38827;53.024;6.596;2024-03-02T04:28:35;8.30;68.40
52963;DHT22;38827;53.024;6.596;2024-03-02T04:31:15;8.20;68.40
52963;DHT22;38827;53.024;6.596;2024-03-02T04:33:49;8.30;68.50
52963;DHT22;38827;53.024;6.596;2024-03-02T04:36:21;8.30;68.50
52963;DHT22;38827;53.024;6.596;2024-03-02T04:39:10;8.30;68.60
52963;DHT22;38827;53.024;6.596;2024-03-02T04:41:43;8.20;68.90
52963;DHT22;38827;53.024;6.596;2024-03-02T04:44:11;8.20;68.70
52963;DHT22;38827;53.024;6.596;2024-03-02T04:46:43;8.20;68.60
52963;DHT22;38827;53.024;6.596;2024-03-02T04:49:11;8.30;68.70
52963;DHT22;38827;53.024;6.596;2024-03-02T04:51:49;8.20;68.70
52963;DHT22;38827;53.024;6.596;2024-03-02T04:54:17;8.20;68.70
52963;DHT22;38827;53.024;6.596;2024-03-02T04:56:52;8.20;68.80
52963;DHT22;38827;53.024;6.596;2024-03-02T04:59:24;8.20;68.90
52963;DHT22;38827;53.024;6.596;2024-03-02T05:01:56;8.20;68.90
52963;DHT22;38827;53.024;6.596;2024-03-02T05:04:24;8.20;68.90
52963;DHT22;38827;53.024;6.596;2024-03-02T05:06:56;8.20;69.00
52963;DHT22;38827;53.024;6.596;2024-03-02T05:09:23;8.20;69.10
52963;DHT22;38827;53.024;6.596;2024-03-02T05:12:01;8.20;69.10
52963;DHT22;38827;53.024;6.596;2024-03-02T05:14:51;8.20;69.00
52963;DHT22;38827;53.024;6.596;2024-03-02T05:17:23;8.20;69.20
52963;DHT22;38827;53.024;6.596;2024-03-02T05:20:05;8.20;69.20
52963;DHT22;38827;53.024;6.596;2024-03-02T05:22:37;8.20;69.30
52963;DHT22;38827;53.024;6.596;2024-03-02T05:25:27;8.20;69.40
52963;DHT22;38827;53.024;6.596;2024-03-02T05:27:58;8.20;69.60
52963;DHT22;38827;53.024;6.596;2024-03-02T05:30:27;8.10;69.60
52963;DHT22;38827;53.024;6.596;2024-03-02T05:32:59;8.10;69.70
52963;DHT22;38827;53.024;6.596;2024-03-02T05:35:28;8.10;69.90
52963;DHT22;38827;53.024;6.596;2024-03-02T05:37:59;8.10;70.00
52963;DHT22;38827;53.024;6.596;2024-03-02T05:40:25;8.10;70.20
52963;DHT22;38827;53.024;6.596;2024-03-02T05:42:56;8.10;70.30
52963;DHT22;38827;53.024;6.596;2024-03-02T05:45:40;8.10;70.10
52963;DHT22;38827;53.024;6.596;2024-03-02T05:48:24;8.10;70.10
52963;DHT22;38827;53.024;6.596;2024-03-02T05:50:56;8.10;70.10
52963;DHT22;38827;53.024;6.596;2024-03-02T05:53:22;8.10;70.20
52963;DHT22;38827;53.024;6.596;2024-03-02T05:56:06;8.10;70.20
52963;DHT22;38827;53.024;6.596;2024-03-02T05:58:32;8.10;70.10
52963;DHT22;38827;53.024;6.596;2024-03-02T06:06:59;8.10;70.10
52963;DHT22;38827;53.024;6.596;2024-03-02T06:12:52;8.00;70.20
52963;DHT22;38827;53.024;6.596;2024-03-02T06:17:53;8.00;70.40
52963;DHT22;38827;53.024;6.596;2024-03-02T06:20:32;8.00;70.50
52963;DHT22;38827;53.024;6.596;2024-03-02T06:23:32;8.00;70.60
52963;DHT22;38827;53.024;6.596;2024-03-02T06:26:04;8.00;70.50
52963;DHT22;38827;53.024;6.596;2024-03-02T06:28:33;7.90;70.70
52963;DHT22;38827;53.024;6.596;2024-03-02T06:31:54;7.90;70.80
52963;DHT22;38827;53.024;6.596;2024-03-02T06:35:02;7.90;71.00
52963;DHT22;38827;53.024;6.596;2024-03-02T06:37:41;7.80;71.00
52963;DHT22;38827;53.024;6.596;2024-03-02T06:40:16;7.80;71.10
52963;DHT22;38827;53.024;6.596;2024-03-02T06:42:42;7.80;71.30
52963;DHT22;38827;53.024;6.596;2024-03-02T06:45:11;7.80;71.40
52963;DHT22;38827;53.024;6.596;2024-03-02T06:47:36;7.70;71.50
52963;DHT22;38827;53.024;6.596;2024-03-02T06:50:47;7.70;71.70
52963;DHT22;38827;53.024;6.596;2024-03-02T06:53:13;7.70;71.90
52963;DHT22;38827;53.024;6.596;2024-03-02T06:55:46;7.70;71.80
52963;DHT22;38827;53.024;6.596;2024-03-02T06:58:27;7.70;72.10
52963;DHT22;38827;53.024;6.596;2024-03-02T07:00:55;7.70;72.00
52963;DHT22;38827;53.024;6.596;2024-03-02T07:03:24;7.70;72.10
52963;DHT22;38827;53.024;6.596;2024-03-02T07:05:55;7.70;72.10
52963;DHT22;38827;53.024;6.596;2024-03-02T07:08:20;7.70;72.20
52963;DHT22;38827;53.024;6.596;2024-03-02T07:10:46;7.70;72.10
52963;DHT22;38827;53.024;6.596;2024-03-02T07:13:12;7.70;72.20
52963;DHT22;38827;53.024;6.596;2024-03-02T07:21:18;7.90;72.10
52963;DHT22;38827;53.024;6.596;2024-03-02T07:23:45;7.90;72.00
52963;DHT22;38827;53.024;6.596;2024-03-02T07:26:26;8.00;72.10
52963;DHT22;38827;53.024;6.596;2024-03-02T07:29:07;8.50;71.60
52963;DHT22;38827;53.024;6.596;2024-03-02T07:31:45;9.20;70.00
52963;DHT22;38827;53.024;6.596;2024-03-02T07:34:16;9.80;68.30
52963;DHT22;38827;53.024;6.596;2024-03-02T07:36:45;10.50;66.40
52963;DHT22;38827;53.024;6.596;2024-03-02T07:39:10;11.20;64.60
52963;DHT22;38827;53.024;6.596;2024-03-02T07:41:48;11.70;63.30
52963;DHT22;38827;53.024;6.596;2024-03-02T07:44:51;12.30;61.80
52963;DHT22;38827;53.024;6.596;2024-03-02T07:47:22;12.90;59.70
52963;DHT22;38827;53.024;6.596;2024-03-02T07:50:00;13.40;58.60
52963;DHT22;38827;53.024;6.596;2024-03-02T07:52:38;14.00;57.60
52963;DHT22;38827;53.024;6.596;2024-03-02T07:55:13;14.50;55.90
52963;DHT22;38827;53.024;6.596;2024-03-02T07:57:51;14.80;54.80
52963;DHT22;38827;53.024;6.596;2024-03-02T08:00:23;15.30;53.60
52963;DHT22;38827;53.024;6.596;2024-03-02T08:03:01;15.60;52.60
52963;DHT22;38827;53.024;6.596;2024-03-02T08:18:35;17.70;48.50
52963;DHT22;38827;53.024;6.596;2024-03-02T08:21:19;18.00;48.30
52963;DHT22;38827;53.024;6.596;2024-03-02T08:23:51;18.30;47.60
52963;DHT22;38827;53.024;6.596;2024-03-02T08:29:19;18.80;46.10
52963;DHT22;38827;53.024;6.596;2024-03-02T08:31:57;19.20;45.40
52963;DHT22;38827;53.024;6.596;2024-03-02T08:34:26;19.40;43.90
52963;DHT22;38827;53.024;6.596;2024-03-02T08:37:32;19.20;44.40
52963;DHT22;38827;53.024;6.596;2024-03-02T08:39:58;19.20;43.90
52963;DHT22;38827;53.024;6.596;2024-03-02T08:42:27;19.10;44.40
52963;DHT22;38827;53.024;6.596;2024-03-02T08:46:06;18.90;44.10
52963;DHT22;38827;53.024;6.596;2024-03-02T08:54:36;19.10;44.00
52963;DHT22;38827;53.024;6.596;2024-03-02T08:57:11;18.80;43.80
52963;DHT22;38827;53.024;6.596;2024-03-02T08:59:37;18.60;43.40
52963;DHT22;38827;53.024;6.596;2024-03-02T09:02:17;18.40;44.10
52963;DHT22;38827;53.024;6.596;2024-03-02T09:04:49;18.20;44.30
52963;DHT22;38827;53.024;6.596;2024-03-02T09:07:22;18.30;44.20
52963;DHT22;38827;53.024;6.596;2024-03-02T09:12:30;17.60;44.10
52963;DHT22;38827;53.024;6.596;2024-03-02T09:14:56;17.50;44.70
52963;DHT22;38827;53.024;6.596;2024-03-02T09:23:21;16.90;45.50
52963;DHT22;38827;53.024;6.596;2024-03-02T09:25:56;16.60;45.40
52963;DHT22;38827;53.024;6.596;2024-03-02T09:28:22;16.40;45.60
52963;DHT22;38827;53.024;6.596;2024-03-02T09:33:22;16.60;45.90
52963;DHT22;38827;53.024;6.596;2024-03-02T09:39:04;17.20;45.10
52963;DHT22;38827;53.024;6.596;2024-03-02T09:41:42;17.00;43.90
52963;DHT22;38827;53.024;6.596;2024-03-02T09:44:21;16.30;45.40
52963;DHT22;38827;53.024;6.596;2024-03-02T09:47:03;15.50;46.60
52963;DHT22;38827;53.024;6.596;2024-03-02T09:50:05;14.80;48.10
52963;DHT22;38827;53.024;6.596;2024-03-02T09:52:39;14.20;49.20
52963;DHT22;38827;53.024;6.596;2024-03-02T09:55:15;13.90;50.50
52963;DHT22;38827;53.024;6.596;2024-03-02T09:57:54;14.30;50.40
52963;DHT22;38827;53.024;6.596;2024-03-02T10:00:30;14.90;49.70
52963;DHT22;38827;53.024;6.596;2024-03-02T10:03:12;16.00;47.70
52963;DHT22;38827;53.024;6.596;2024-03-02T10:05:41;16.70;46.70
52963;DHT22;38827;53.024;6.596;2024-03-02T10:08:26;16.90;46.10
52963;DHT22;38827;53.024;6.596;2024-03-02T10:10:52;16.40;46.50
52963;DHT22;38827;53.024;6.596;2024-03-02T10:13:25;16.80;46.10
52963;DHT22;38827;53.024;6.596;2024-03-02T10:16:17;17.10;45.20
52963;DHT22;38827;53.024;6.596;2024-03-02T10:18:46;16.90;45.30
52963;DHT22;38827;53.024;6.596;2024-03-02T10:21:52;16.40;46.30
52963;DHT22;38827;53.024;6.596;2024-03-02T10:28:46;15.90;47.40
52963;DHT22;38827;53.024;6.596;2024-03-02T10:31:25;15.10;48.40
52963;DHT22;38827;53.024;6.596;2024-03-02T10:34:04;15.00;49.00
52963;DHT22;38827;53.024;6.596;2024-03-02T10:36:30;15.20;49.00
52963;DHT22;38827;53.024;6.596;2024-03-02T10:38:58;15.70;47.70
52963;DHT22;38827;53.024;6.596;2024-03-02T10:41:28;16.20;47.80
52963;DHT22;38827;53.024;6.596;2024-03-02T10:43:56;16.80;46.90
52963;DHT22;38827;53.024;6.596;2024-03-02T10:46:30;17.70;45.80
52963;DHT22;38827;53.024;6.596;2024-03-02T10:48:57;18.20;44.00
52963;DHT22;38827;53.024;6.596;2024-03-02T10:51:25;18.10;43.90
52963;DHT22;38827;53.024;6.596;2024-03-02T10:53:52;17.60;44.80
52963;DHT22;38827;53.024;6.596;2024-03-02T10:56:26;17.80;45.10
52963;DHT22;38827;53.024;6.596;2024-03-02T11:01:48;18.40;43.40
52963;DHT22;38827;53.024;6.596;2024-03-02T11:04:17;19.30;42.40
52963;DHT22;38827;53.024;6.596;2024-03-02T11:06:56;20.10;40.50
52963;DHT22;38827;53.024;6.596;2024-03-02T11:09:27;20.80;39.40
52963;DHT22;38827;53.024;6.596;2024-03-02T11:12:15;21.10;39.00
52963;DHT22;38827;53.024;6.596;2024-03-02T11:14:43;21.20;38.20
52963;DHT22;38827;53.024;6.596;2024-03-02T11:17:09;20.80;38.70
52963;DHT22;38827;53.024;6.596;2024-03-02T11:19:38;19.80;39.10
52963;DHT22;38827;53.024;6.596;2024-03-02T11:22:04;18.70;40.30
52963;DHT22;38827;53.024;6.596;2024-03-02T11:24:49;18.50;41.10
52963;DHT22;38827;53.024;6.596;2024-03-02T11:33:04;17.20;42.70
52963;DHT22;38827;53.024;6.596;2024-03-02T11:35:34;16.70;43.60
52963;DHT22;38827;53.024;6.596;2024-03-02T11:38:01;16.50;44.40
52963;DHT22;38827;53.024;6.596;2024-03-02T11:40:29;17.30;43.90
52963;DHT22;38827;53.024;6.596;2024-03-02T11:42:55;18.30;42.60
52963;DHT22;38827;53.024;6.596;2024-03-02T11:45:31;19.30;41.00
52963;DHT22;38827;53.024;6.596;2024-03-02T11:48:20;20.40;39.60
52963;DHT22;38827;53.024;6.596;2024-03-02T11:50:58;20.80;38.60
52963;DHT22;38827;53.024;6.596;2024-03-02T11:53:38;20.20;38.10
52963;DHT22;38827;53.024;6.596;2024-03-02T12:00:26;18.10;40.60
52963;DHT22;38827;53.024;6.596;2024-03-02T12:03:08;17.00;42.20
52963;DHT22;38827;53.024;6.596;2024-03-02T12:05:43;16.30;43.50
52963;DHT22;38827;53.024;6.596;2024-03-02T12:08:13;15.80;44.50
52963;DHT22;38827;53.024;6.596;2024-03-02T12:10:58;15.50;45.00
52963;DHT22;38827;53.024;6.596;2024-03-02T12:13:24;15.20;45.10
52963;DHT22;38827;53.024;6.596;2024-03-02T12:16:05;15.10;45.00
52963;DHT22;38827;53.024;6.596;2024-03-02T12:18:31;15.60;43.90
52963;DHT22;38827;53.024;6.596;2024-03-02T12:20:57;16.40;43.20
52963;DHT22;38827;53.024;6.596;2024-03-02T12:23:59;16.80;42.60
52963;DHT22;38827;53.024;6.596;2024-03-02T12:26:31;18.00;41.00
52963;DHT22;38827;53.024;6.596;2024-03-02T12:29:50;19.10;40.10
52963;DHT22;38827;53.024;6.596;2024-03-02T12:32:19;20.30;37.70
52963;DHT22;38827;53.024;6.596;2024-03-02T12:38:30;21.20;37.30
52963;DHT22;38827;53.024;6.596;2024-03-02T12:41:15;21.40;35.60
52963;DHT22;38827;53.024;6.596;2024-03-02T12:43:58;21.30;36.20
52963;DHT22;38827;53.024;6.596;2024-03-02T12:46:37;21.10;36.40
52963;DHT22;38827;53.024;6.596;2024-03-02T12:52:32;21.10;35.70
52963;DHT22;38827;53.024;6.596;2024-03-02T12:55:01;21.30;36.20
52963;DHT22;38827;53.024;6.596;2024-03-02T12:57:51;21.40;35.90
52963;DHT22;38827;53.024;6.596;2024-03-02T13:00:35;21.30;35.10
52963;DHT22;38827;53.024;6.596;2024-03-02T13:03:38;21.60;34.70
52963;DHT22;38827;53.024;6.596;2024-03-02T13:09:27;22.10;34.90
52963;DHT22;38827;53.024;6.596;2024-03-02T13:11:54;22.40;34.50
52963;DHT22;38827;53.024;6.596;2024-03-02T13:14:22;22.60;35.60
52963;DHT22;38827;53.024;6.596;2024-03-02T13:17:24;23.20;35.10
52963;DHT22;38827;53.024;6.596;2024-03-02T13:19:53;23.90;33.80
52963;DHT22;38827;53.024;6.596;2024-03-02T13:22:34;24.00;33.90
52963;DHT22;38827;53.024;6.596;2024-03-02T13:25:12;23.90;33.40
52963;DHT22;38827;53.024;6.596;2024-03-02T13:27:38;23.60;33.60
52963;DHT22;38827;53.024;6.596;2024-03-02T13:30:04;23.20;34.10
52963;DHT22;38827;53.024;6.596;2024-03-02T13:32:33;22.90;34.40
52963;DHT22;38827;53.024;6.596;2024-03-02T13:34:59;22.60;34.20
52963;DHT22;38827;53.024;6.596;2024-03-02T13:37:25;22.50;34.70
52963;DHT22;38827;53.024;6.596;2024-03-02T13:39:51;22.70;34.80
52963;DHT22;38827;53.024;6.596;2024-03-02T13:51:13;21.20;34.40
52963;DHT22;38827;53.024;6.596;2024-03-02T13:53:48;20.60;35.30
52963;DHT22;38827;53.024;6.596;2024-03-02T13:56:19;20.10;35.60
52963;DHT22;38827;53.024;6.596;2024-03-02T13:59:05;19.30;36.40
52963;DHT22;38827;53.024;6.596;2024-03-02T14:01:39;18.40;37.00
52963;DHT22;38827;53.024;6.596;2024-03-02T14:04:28;17.80;37.80
52963;DHT22;38827;53.024;6.596;2024-03-02T14:06:53;17.20;38.40
52963;DHT22;38827;53.024;6.596;2024-03-02T14:09:25;17.00;38.80
52963;DHT22;38827;53.024;6.596;2024-03-02T14:12:02;16.80;39.00
52963;DHT22;38827;53.024;6.596;2024-03-02T14:14:28;16.40;39.60
52963;DHT22;38827;53.024;6.596;2024-03-02T14:17:26;16.00;40.10
52963;DHT22;38827;53.024;6.596;2024-03-02T14:19:52;15.70;40.90
52963;DHT22;38827;53.024;6.596;2024-03-02T14:22:25;15.40;41.20
52963;DHT22;38827;53.024;6.596;2024-03-02T14:24:53;15.30;41.30
52963;DHT22;38827;53.024;6.596;2024-03-02T14:27:37;15.20;41.70
52963;DHT22;38827;53.024;6.596;2024-03-02T14:30:06;15.30;42.20
52963;DHT22;38827;53.024;6.596;2024-03-02T14:32:33;15.40;41.70
52963;DHT22;38827;53.024;6.596;2024-03-02T14:34:58;15.70;41.50
52963;DHT22;38827;53.024;6.596;2024-03-02T14:37:24;16.00;41.30
52963;DHT22;38827;53.024;6.596;2024-03-02T14:39:50;16.10;41.20
52963;DHT22;38827;53.024;6.596;2024-03-02T14:42:16;16.30;41.40
52963;DHT22;38827;53.024;6.596;2024-03-02T14:44:41;16.30;41.20
52963;DHT22;38827;53.024;6.596;2024-03-02T14:47:07;16.10;41.30
52963;DHT22;38827;53.024;6.596;2024-03-02T14:49:33;16.30;41.50
52963;DHT22;38827;53.024;6.596;2024-03-02T14:52:05;16.70;41.30
52963;DHT22;38827;53.024;6.596;2024-03-02T14:54:31;17.30;40.40
52963;DHT22;38827;53.024;6.596;2024-03-02T14:56:57;17.50;40.10
52963;DHT22;38827;53.024;6.596;2024-03-02T14:59:23;17.30;40.40
52963;DHT22;38827;53.024;6.596;2024-03-02T15:01:48;17.20;41.00
52963;DHT22;38827;53.024;6.596;2024-03-02T15:04:14;17.00;41.30
52963;DHT22;38827;53.024;6.596;2024-03-02T15:06:42;17.10;41.40
52963;DHT22;38827;53.024;6.596;2024-03-02T15:09:20;17.10;41.30
52963;DHT22;38827;53.024;6.596;2024-03-02T15:11:45;16.80;41.70
52963;DHT22;38827;53.024;6.596;2024-03-02T15:14:11;16.40;42.80
52963;DHT22;38827;53.024;6.596;2024-03-02T15:16:37;16.10;43.60
52963;DHT22;38827;53.024;6.596;2024-03-02T15:19:03;15.80;44.30
52963;DHT22;38827;53.024;6.596;2024-03-02T15:21:37;15.40;44.70
52963;DHT22;38827;53.024;6.596;2024-03-02T15:24:09;15.10;45.40
52963;DHT22;38827;53.024;6.596;2024-03-02T15:26:44;14.80;46.40
52963;DHT22;38827;53.024;6.596;2024-03-02T15:29:25;14.60;47.40
52963;DHT22;38827;53.024;6.596;2024-03-02T15:31:56;14.30;47.90
52963;DHT22;38827;53.024;6.596;2024-03-02T15:34:34;14.10;48.00
52963;DHT22;38827;53.024;6.596;2024-03-02T15:37:16;13.90;48.30
52963;DHT22;38827;53.024;6.596;2024-03-02T15:39:47;13.70;49.50
52963;DHT22;38827;53.024;6.596;2024-03-02T15:42:16;13.50;49.40
52963;DHT22;38827;53.024;6.596;2024-03-02T15:44:55;13.40;49.60
52963;DHT22;38827;53.024;6.596;2024-03-02T15:47:24;13.30;50.20
52963;DHT22;38827;53.024;6.596;2024-03-02T15:50:08;13.10;50.40
52963;DHT22;38827;53.024;6.596;2024-03-02T15:52:34;13.00;51.10
52963;DHT22;38827;53.024;6.596;2024-03-02T15:55:00;12.90;51.10
52963;DHT22;38827;53.024;6.596;2024-03-02T15:57:26;12.80;51.60
52963;DHT22;38827;53.024;6.596;2024-03-02T16:00:05;12.80;51.90
52963;DHT22;38827;53.024;6.596;2024-03-02T16:02:31;12.70;52.10
52963;DHT22;38827;53.024;6.596;2024-03-02T16:05:00;12.70;52.40
52963;DHT22;38827;53.024;6.596;2024-03-02T16:07:26;12.80;52.60
52963;DHT22;38827;53.024;6.596;2024-03-02T16:09:51;12.90;52.60
52963;DHT22;38827;53.024;6.596;2024-03-02T16:12:17;13.00;52.60
52963;DHT22;38827;53.024;6.596;2024-03-02T16:14:42;13.10;52.60
52963;DHT22;38827;53.024;6.596;2024-03-02T16:17:08;13.20;52.60
52963;DHT22;38827;53.024;6.596;2024-03-02T16:19:43;13.20;52.90
52963;DHT22;38827;53.024;6.596;2024-03-02T16:22:13;13.30;52.80
52963;DHT22;38827;53.024;6.596;2024-03-02T16:24:54;13.20;52.60
52963;DHT22;38827;53.024;6.596;2024-03-02T16:27:20;13.10;52.90
52963;DHT22;38827;53.024;6.596;2024-03-02T16:29:46;12.90;53.40
52963;DHT22;38827;53.024;6.596;2024-03-02T16:32:33;12.80;53.80
52963;DHT22;38827;53.024;6.596;2024-03-02T16:34:59;12.70;54.40
52963;DHT22;38827;53.024;6.596;2024-03-02T16:37:30;12.50;54.60
52963;DHT22;38827;53.024;6.596;2024-03-02T16:39:59;12.50;55.10
52963;DHT22;38827;53.024;6.596;2024-03-02T16:42:25;12.40;55.40
52963;DHT22;38827;53.024;6.596;2024-03-02T16:44:50;12.40;55.50
52963;DHT22;38827;53.024;6.596;2024-03-02T16:47:21;12.30;55.70
52963;DHT22;38827;53.024;6.596;2024-03-02T16:49:47;12.30;55.90
52963;DHT22;38827;53.024;6.596;2024-03-02T16:52:35;12.20;56.10
52963;DHT22;38827;53.024;6.596;2024-03-02T16:55:00;12.10;56.30
52963;DHT22;38827;53.024;6.596;2024-03-02T16:57:35;12.00;56.60
52963;DHT22;38827;53.024;6.596;2024-03-02T17:00:16;12.00;56.90
52963;DHT22;38827;53.024;6.596;2024-03-02T17:02:42;11.90;57.10
52963;DHT22;38827;53.024;6.596;2024-03-02T17:05:20;11.80;57.30
52963;DHT22;38827;53.024;6.596;2024-03-02T17:08:04;11.70;57.60
52963;DHT22;38827;53.024;6.596;2024-03-02T17:10:45;11.70;57.70
52963;DHT22;38827;53.024;6.596;2024-03-02T17:13:12;11.60;58.00
52963;DHT22;38827;53.024;6.596;2024-03-02T17:15:38;11.50;58.10
52963;DHT22;38827;53.024;6.596;2024-03-02T17:18:10;11.50;58.40
52963;DHT22;38827;53.024;6.596;2024-03-02T17:20:35;11.40;58.60
52963;DHT22;38827;53.024;6.596;2024-03-02T17:23:10;11.30;58.80
52963;DHT22;38827;53.024;6.596;2024-03-02T17:25:45;11.30;59.10
52963;DHT22;38827;53.024;6.596;2024-03-02T17:28:32;11.20;59.40
52963;DHT22;38827;53.024;6.596;2024-03-02T17:30:59;11.10;59.70
52963;DHT22;38827;53.024;6.596;2024-03-02T17:33:33;11.00;59.70
52963;DHT22;38827;53.024;6.596;2024-03-02T17:35:59;11.00;60.00
52963;DHT22;38827;53.024;6.596;2024-03-02T17:38:24;10.90;60.10
52963;DHT22;38827;53.024;6.596;2024-03-02T17:40:50;10.90;60.30
52963;DHT22;38827;53.024;6.596;2024-03-02T17:43:19;10.80;60.50
52963;DHT22;38827;53.024;6.596;2024-03-02T17:45:47;10.80;60.70
52963;DHT22;38827;53.024;6.596;2024-03-02T17:48:13;10.80;61.00
52963;DHT22;38827;53.024;6.596;2024-03-02T17:50:45;10.70;61.00
52963;DHT22;38827;53.024;6.596;2024-03-02T17:53:12;10.70;61.30
52963;DHT22;38827;53.024;6.596;2024-03-02T17:55:40;10.60;61.50
52963;DHT22;38827;53.024;6.596;2024-03-02T17:58:06;10.60;61.70